Time;durP1;ratioP1;P1;durP2;ratioP2;P2;SDS_P1;SDS_P2;PMS_P1;PMS_P2;Temp;Humidity;BMP_temperature;BMP_pressure;BME280_temperature;BME280_humidity;BME280_pressure;Samples;Min_cycle;Max_cycle;Signal;HPM_P1;HPM_P2
2023/05/30 00:01:46;;;;;;;;;8.67;7.00;;;;;17.76;69.82;100487.84;146643;597;46010;-70
2023/05/30 00:04:53;;;;;;;;;7.67;7.00;;;;;16.62;70.16;100290.88;146640;655;46012;-69
2023/05/30 00:07:51;;;;;;;;;7.33;7.33;;;;;18.29;71.12;100599.03;146636;671;45020;-69
2023/05/30 00:10:49;;;;;;;;;6.25;6.25;;;;;18.92;71.73;100724.47;146634;658;45012;-69
2023/05/30 00:13:45;;;;;;;;;8.00;6.50;;;;;18.90;71.38;100726.16;146628;563;45917;-69
2023/05/30 00:16:41;;;;;;;;;8.00;6.00;;;;;18.90;71.22;100723.53;146632;650;46915;-69
2023/05/30 00:20:01;;;;;;;;;7.00;6.75;;;;;18.93;71.26;100726.22;146630;582;45010;-69
2023/05/30 00:23:07;;;;;;;;;6.50;6.00;;;;;18.91;71.06;100726.22;146635;685;45017;-69
2023/05/30 00:26:10;;;;;;;;;7.00;6.00;;;;;18.90;70.85;100720.91;146635;641;45021;-68
2023/05/30 00:29:35;;;;;;;;;7.00;6.75;;;;;18.95;71.33;100724.50;146631;569;45917;-68
2023/05/30 00:32:40;;;;;;;;;6.67;6.67;;;;;19.01;71.19;100723.75;146639;602;45021;-68
2023/05/30 00:35:45;;;;;;;;;;;;;;;;;;;;;
2023/05/30 00:38:40;;;;;;;;;7.50;6.50;;;;;19.08;71.06;100726.47;146638;725;45012;-68
2023/05/30 00:42:11;;;;;;;;;7.50;6.25;;;;;19.10;71.17;100722.16;146636;586;45016;-69
2023/05/30 00:45:03;;;;;;;;;8.75;7.25;;;;;19.14;70.87;100728.34;146637;740;45021;-68
2023/05/30 00:48:21;;;;;;;;;7.25;7.25;;;;;16.51;69.90;100258.41;146635;635;45012;-68
2023/05/30 00:51:20;;;;;;;;;7.25;7.00;;;;;19.20;71.21;100723.19;146631;674;45020;-68
2023/05/30 00:54:22;;;;;;;;;9.00;7.25;;;;;19.20;71.81;100728.44;146635;652;45012;-67
2023/05/30 00:57:40;;;;;;;;;6.00;6.00;;;;;19.18;72.13;100727.50;146637;727;45010;-67
2023/05/30 01:00:43;;;;;;;;;7.50;7.25;;;;;19.11;71.81;100736.16;146633;598;45916;-69
2023/05/30 01:04:05;;;;;;;;;9.00;6.50;;;;;19.04;71.72;100739.56;146620;632;46014;-69
2023/05/30 01:07:23;;;;;;;;;5.50;5.50;;;;;19.02;71.78;100733.38;146610;584;46012;-69
2023/05/30 01:10:22;;;;;;;;;8.00;6.00;;;;;19.04;71.78;100731.69;146617;674;46020;-70
2023/05/30 01:13:46;;;;;;;;;8.75;8.00;;;;;19.05;71.99;100738.69;146609;669;47014;-69
2023/05/30 01:16:53;;;;;;;;;12.00;9.00;;;;;19.04;72.72;100737.81;146617;564;46010;-69
2023/05/30 01:20:22;;;;;;;;;14.00;8.75;;;;;19.00;72.89;100728.09;146609;662;46915;-69
2023/05/30 01:24:11;;;;;;;;;6.75;6.00;;;;;18.69;72.65;100718.75;146603;635;47014;-68
2023/05/30 01:27:44;;;;;;;;;7.33;7.33;;;;;18.88;72.89;100723.53;146609;653;47016;-71
2023/05/30 01:31:03;;;;;;;;;7.25;7.00;;;;;18.82;72.96;100761.94;146616;644;46010;-67
2023/05/30 01:34:16;;;;;;;;;9.00;8.75;;;;;18.85;73.65;100727.84;146612;632;47012;-66
2023/05/30 01:37:46;;;;;;;;;10.50;8.75;;;;;17.58;72.40;100500.63;146617;673;46010;-66
2023/05/30 01:40:52;;;;;;;;;9.00;8.50;;;;;18.92;73.11;100724.47;146612;643;47012;-65
2023/05/30 01:44:22;;;;;;;;;7.25;6.75;;;;;18.91;73.16;100720.97;146615;564;47010;-65
2023/05/30 01:47:15;;;;;;;;;11.00;7.67;;;;;18.86;74.90;100719.97;146705;567;46014;-65
2023/05/30 01:50:27;;;;;;;;;7.67;7.00;;;;;18.86;72.56;100726.97;146619;603;46012;-65
2023/05/30 01:53:42;;;;;;;;;8.67;8.00;;;;;18.81;72.89;100723.38;146622;590;46020;-66
2023/05/30 01:57:23;;;;;;;;;4.00;4.00;;;;;17.54;71.67;100499.69;146619;592;46918;-64
2023/05/30 02:00:26;;;;;;;;;8.00;7.00;;;;;18.82;72.93;100722.53;146623;602;46020;-66
2023/05/30 02:03:25;;;;;;;;;9.00;7.00;;;;;18.83;72.78;100727.81;146613;579;47014;-70
2023/05/30 02:06:22;;;;;;;;;7.00;6.00;;;;;18.84;73.73;100728.69;146621;586;46020;-67
2023/05/30 02:09:21;;;;;;;;;8.33;6.33;;;;;18.79;72.99;100725.13;146619;623;46017;-68
2023/05/30 02:12:28;;;;;;;;;7.67;5.67;;;;;18.76;73.07;100728.56;146624;591;45020;-68
2023/05/30 02:15:40;;;;;;;;;6.67;6.67;;;;;18.69;72.62;100718.75;146621;597;46015;-68
2023/05/30 02:18:53;;;;;;;;;7.75;7.00;;;;;18.64;73.03;100728.31;146623;628;46010;-68
2023/05/30 02:21:57;;;;;;;;;9.33;7.33;;;;;18.61;72.62;100729.13;146620;569;46016;-68
2023/05/30 02:24:52;;;;;;;;;8.50;7.00;;;;;18.62;72.30;100736.13;146621;647;46021;-67
2023/05/30 02:28:07;;;;;;;;;7.67;7.00;;;;;18.66;71.92;100739.69;146619;586;46016;-69
2023/05/30 02:31:03;;;;;;;;;5.33;5.33;;;;;18.68;71.72;100735.37;146622;601;46012;-67
2023/05/30 02:34:06;;;;;;;;;7.00;6.00;;;;;18.71;72.50;100743.31;146618;569;46016;-67
2023/05/30 02:37:05;;;;;;;;;10.00;8.00;;;;;18.72;72.82;100745.06;146621;616;46020;-66
2023/05/30 02:39:59;;;;;;;;;8.00;8.00;;;;;18.72;72.63;100749.44;146613;576;46017;-66
2023/05/30 02:43:00;;;;;;;;;7.25;7.25;;;;;18.72;73.17;100752.94;146621;573;46010;-66
2023/05/30 02:46:01;;;;;;;;;9.33;8.00;;;;;18.74;73.32;100747.78;146618;583;46017;-67
2023/05/30 02:49:11;;;;;;;;;9.00;9.00;;;;;18.77;73.28;100761.84;146620;565;46020;-67
2023/05/30 02:52:38;;;;;;;;;10.75;8.25;;;;;17.32;71.79;100500.12;146618;675;46016;-68
2023/05/30 02:55:56;;;;;;;;;7.00;7.00;;;;;16.34;72.91;100326.06;146623;564;46010;-66
2023/05/30 02:58:56;;;;;;;;;6.33;6.33;;;;;18.85;74.15;100762.00;146619;624;46016;-67
2023/05/30 03:01:54;;;;;;;;;8.25;8.25;;;;;18.86;73.55;100756.75;146620;602;46021;-68
2023/05/30 03:04:54;;;;;;;;;8.25;7.00;;;;;18.89;73.06;100767.31;146617;583;46016;-68
2023/05/30 03:07:52;;;;;;;;;9.00;6.50;;;;;18.89;73.17;100766.44;146617;651;47011;-68
2023/05/30 03:10:59;;;;;;;;;8.00;8.00;;;;;18.91;74.01;100762.13;146617;615;46014;-67
2023/05/30 03:13:51;;;;;;;;;7.75;6.75;;;;;18.92;74.54;100775.25;146621;585;46020;-68
2023/05/30 03:16:48;;;;;;;;;12.25;8.25;;;;;18.88;74.13;100768.19;146619;634;46021;-68
2023/05/30 03:19:59;;;;;;;;;10.25;9.00;;;;;18.85;74.28;100773.41;146623;661;46010;-68
2023/05/30 03:22:51;;;;;;;;;10.50;9.00;;;;;18.82;74.50;100773.34;146617;657;46016;-68
2023/05/30 03:25:46;;;;;;;;;10.00;10.00;;;;;18.87;74.21;100782.16;146619;604;46020;-69
2023/05/30 03:28:53;;;;;;;;;7.75;7.25;;;;;18.93;74.54;100778.78;146614;563;46914;-68
2023/05/30 03:31:45;;;;;;;;;12.00;10.00;;;;;18.99;74.27;100772.75;146623;572;46021;-68
2023/05/30 03:35:06;;;;;;;;;;;;;;;;;;;;;
2023/05/30 03:38:00;;;;;;;;;9.75;7.00;;;;;19.07;74.12;100768.53;146623;643;46010;-66
2023/05/30 03:40:54;;;;;;;;;9.50;9.50;;;;;19.09;73.91;100772.03;146618;678;46012;-67
2023/05/30 03:43:57;;;;;;;;;8.25;7.50;;;;;19.07;74.27;100761.50;146622;661;46012;-67
2023/05/30 03:47:01;;;;;;;;;9.25;9.25;;;;;19.08;73.60;100767.66;146615;585;46025;-67
2023/05/30 03:50:01;;;;;;;;;8.00;7.50;;;;;19.13;74.15;100769.50;146619;637;47020;-68
2023/05/30 03:53:06;;;;;;;;;11.75;8.00;;;;;16.67;73.88;100332.88;146618;611;46017;-68
2023/05/30 03:56:20;;;;;;;;;8.75;8.25;;;;;19.28;74.12;100767.97;146619;635;46010;-68
2023/05/30 03:59:27;;;;;;;;;10.00;8.00;;;;;16.99;73.05;100366.72;146619;629;46017;-68
2023/05/30 04:02:54;;;;;;;;;6.00;6.00;;;;;19.43;72.49;100775.25;146621;632;47012;-67
2023/05/30 04:05:53;;;;;;;;;11.00;7.75;;;;;19.49;73.44;100767.44;146618;577;46014;-68
2023/05/30 04:09:03;;;;;;;;;7.50;7.50;;;;;19.50;73.03;100779.72;146617;566;46021;-67
2023/05/30 04:12:07;;;;;;;;;9.75;9.50;;;;;18.46;73.22;100589.69;146703;633;45022;-67
2023/05/30 04:15:10;;;;;;;;;10.25;7.50;;;;;19.60;72.63;100782.53;146620;618;46015;-67
2023/05/30 04:18:07;;;;;;;;;10.75;9.25;;;;;19.63;71.89;100776.44;146622;712;46014;-68
2023/05/30 04:21:20;;;;;;;;;11.50;9.50;;;;;19.60;71.68;100781.66;146616;678;46016;-66
2023/05/30 04:24:29;;;;;;;;;;;;;;;;;;;;;
2023/05/30 04:27:46;;;;;;;;;10.50;10.50;;;;;19.55;72.28;100785.94;146617;607;46016;-65
2023/05/30 04:30:48;;;;;;;;;11.67;9.00;;;;;19.57;72.50;100792.13;146616;622;46020;-64
2023/05/30 04:33:48;;;;;;;;;10.00;9.00;;;;;19.60;72.39;100800.94;146621;608;46016;-65
2023/05/30 04:37:02;;;;;;;;;12.75;12.75;;;;;19.64;72.46;100796.66;146623;659;46010;-65
2023/05/30 04:40:08;;;;;;;;;11.25;9.75;;;;;19.66;72.66;100802.81;146608;586;46016;-65
2023/05/30 04:43:20;;;;;;;;;11.25;8.75;;;;;19.69;72.54;100802.87;146621;564;46020;-67
2023/05/30 04:46:17;;;;;;;;;9.50;8.50;;;;;19.75;72.80;100807.31;146616;606;46014;-66
2023/05/30 04:49:23;;;;;;;;;11.50;8.25;;;;;18.51;72.25;100579.28;146624;672;46020;-66
2023/05/30 04:52:18;;;;;;;;;10.25;8.50;;;;;19.86;72.65;100821.53;146615;618;47014;-66
2023/05/30 04:55:28;;;;;;;;;13.75;10.50;;;;;18.57;72.07;100588.12;146620;607;46010;-66
2023/05/30 04:58:08;;;;;;;;;10.67;10.00;;;;;19.95;73.19;100821.66;146701;564;46012;-68
2023/05/30 05:01:13;;;;;;;;;;;;;;;;;;;;;
2023/05/30 05:04:14;;;;;;;;;11.75;9.75;;;;;19.98;70.30;100821.72;146619;599;46022;-66
2023/05/30 05:07:35;;;;;;;;;11.50;11.50;;;;;20.02;70.08;100827.91;146617;570;46918;-66
2023/05/30 05:10:34;;;;;;;;;16.00;13.00;;;;;20.07;71.58;100832.38;146622;679;46020;-68
2023/05/30 05:13:34;;;;;;;;;11.00;9.00;;;;;20.13;71.43;100828.94;146616;689;46031;-67
2023/05/30 05:16:54;;;;;;;;;11.75;11.00;;;;;19.00;70.36;100630.84;146620;625;46021;-67
2023/05/30 05:20:00;;;;;;;;;12.00;10.50;;;;;20.20;70.99;100819.38;146614;680;47014;-66
2023/05/30 05:23:08;;;;;;;;;12.00;9.00;;;;;20.46;69.79;100846.94;146620;658;46012;-68
2023/05/30 05:26:12;;;;;;;;;10.50;10.50;;;;;20.58;69.85;100848.88;146617;570;46016;-67
2023/05/30 05:29:10;;;;;;;;;9.25;9.25;;;;;20.73;69.72;100842.91;146620;603;47010;-68
2023/05/30 05:32:38;;;;;;;;;11.25;9.50;;;;;19.43;69.12;100591.16;146616;689;46017;-67
2023/05/30 05:35:33;;;;;;;;;10.67;10.00;;;;;21.19;70.17;100852.19;146619;693;46020;-66
2023/05/30 05:38:32;;;;;;;;;8.00;8.00;;;;;21.49;67.70;100852.50;146618;573;46017;-66
2023/05/30 05:41:30;;;;;;;;;10.33;10.33;;;;;21.74;65.82;100848.28;146621;634;47010;-66
2023/05/30 05:44:25;;;;;;;;;7.50;7.25;;;;;21.86;65.23;100851.03;146701;580;46022;-67
2023/05/30 05:47:24;;;;;;;;;12.00;10.75;;;;;21.94;64.67;100857.25;146619;577;46016;-67
2023/05/30 05:50:35;;;;;;;;;12.00;11.00;;;;;22.03;63.95;100864.37;146621;592;46010;-67
2023/05/30 05:53:30;;;;;;;;;12.00;11.75;;;;;22.20;63.82;100872.41;146615;687;47012;-66
2023/05/30 05:56:26;;;;;;;;;11.50;9.50;;;;;22.35;61.79;100870.72;146620;656;46034;-65
2023/05/30 05:59:19;;;;;;;;;18.75;17.50;;;;;22.51;61.75;100874.34;146618;589;46916;-66
2023/05/30 06:02:17;;;;;;;;;12.50;9.75;;;;;22.65;61.25;100877.06;146620;575;46021;-67
2023/05/30 06:05:13;;;;;;;;;10.67;10.67;;;;;22.79;60.75;100880.63;146621;577;46012;-66
2023/05/30 06:08:41;;;;;;;;;11.00;9.25;;;;;22.85;61.13;100866.53;146622;670;46011;-66
2023/05/30 06:11:43;;;;;;;;;10.50;8.25;;;;;23.01;59.22;100881.59;146618;576;46016;-66
2023/05/30 06:14:57;;;;;;;;;;;;;;;;;;;;;
2023/05/30 06:17:55;;;;;;;;;10.50;7.75;;;;;22.89;60.30;100884.16;146618;565;47012;-67
2023/05/30 06:20:54;;;;;;;;;8.00;7.00;;;;;22.86;60.82;100885.94;146626;568;46010;-66
2023/05/30 06:23:55;;;;;;;;;9.00;7.25;;;;;22.84;61.13;100872.72;146618;573;46017;-66
2023/05/30 06:27:00;;;;;;;;;7.75;7.75;;;;;22.90;60.56;100885.09;146626;667;46010;-66
2023/05/30 06:29:54;;;;;;;;;10.00;8.00;;;;;23.04;59.81;100883.38;146620;597;46916;-66
2023/05/30 06:32:54;;;;;;;;;12.00;10.00;;;;;23.15;58.42;100875.47;146621;686;46020;-67
2023/05/30 06:35:40;;;;;;;;;8.00;7.00;;;;;23.22;57.29;100882.53;146700;586;45023;-70
2023/05/30 06:38:36;;;;;;;;;9.00;8.00;;;;;23.23;58.58;100879.88;146618;577;46016;-70
2023/05/30 06:41:34;;;;;;;;;9.67;9.00;;;;;23.23;57.10;100887.81;146618;590;46020;-66
2023/05/30 06:44:49;;;;;;;;;7.33;6.00;;;;;23.21;58.46;100892.25;146613;585;46017;-70
2023/05/30 06:48:06;;;;;;;;;8.00;6.67;;;;;;;;146618;598;47012;-69
2023/05/30 06:50:54;;;;;;;;;10.33;9.67;;;;;23.17;57.71;100895.75;146705;564;47014;-66
2023/05/30 06:53:53;;;;;;;;;7.00;7.00;;;;;23.13;58.77;100901.91;146619;636;46016;-67
2023/05/30 06:56:55;;;;;;;;;8.67;7.67;;;;;23.04;58.99;100900.12;146621;578;48010;-67
2023/05/30 07:00:10;;;;;;;;;;;;;;;;;;;;;
2023/05/30 07:03:13;;;;;;;;;9.00;8.00;;;;;22.95;59.79;100904.50;146622;602;46020;-68
2023/05/30 07:06:29;;;;;;;;;10.00;9.25;;;;;22.97;60.39;100903.62;146618;590;47012;-68
2023/05/30 07:09:28;;;;;;;;;7.00;7.00;;;;;22.97;59.93;100905.41;146623;632;46020;-65
2023/05/30 07:12:40;;;;;;;;;10.33;8.33;;;;;22.96;61.03;100904.53;146617;598;46016;-67
2023/05/30 07:15:34;;;;;;;;;9.00;7.00;;;;;22.94;59.14;100905.38;146624;582;46020;-67
2023/05/30 07:18:39;;;;;;;;;8.00;7.67;;;;;22.98;60.36;100917.72;146618;565;46016;-67
2023/05/30 07:21:40;;;;;;;;;7.00;5.67;;;;;23.09;60.02;100904.56;146622;604;46010;-67
2023/05/30 07:24:32;;;;;;;;;7.25;6.50;;;;;23.22;58.52;100914.28;146620;628;46016;-70
2023/05/30 07:27:40;;;;;;;;;10.67;8.67;;;;;23.27;58.81;100909.88;146623;598;46020;-66
2023/05/30 07:30:47;;;;;;;;;7.33;6.67;;;;;23.36;58.73;100917.81;146619;599;46016;-66
2023/05/30 07:33:53;;;;;;;;;5.00;5.00;;;;;23.42;57.34;100907.25;146623;599;46010;-66
2023/05/30 07:36:45;;;;;;;;;6.00;5.67;;;;;23.39;57.15;100914.31;146620;580;46012;-66
2023/05/30 07:39:50;;;;;;;;;8.67;7.33;;;;;23.31;58.28;100916.97;146623;577;46020;-70
2023/05/30 07:42:42;;;;;;;;;5.00;4.33;;;;;23.32;57.34;100912.53;146615;618;46017;-66
2023/05/30 07:45:40;;;;;;;;;11.33;8.33;;;;;23.26;58.02;100908.13;146626;597;46010;-65
2023/05/30 07:48:43;;;;;;;;;7.00;7.00;;;;;23.27;59.27;100908.13;146619;563;46016;-69
2023/05/30 07:51:44;;;;;;;;;7.33;7.33;;;;;23.27;58.35;100915.16;146625;610;46010;-68
2023/05/30 07:54:46;;;;;;;;;10.00;7.75;;;;;23.23;58.99;100911.63;146616;685;46012;-67
2023/05/30 07:58:10;;;;;;;;;8.00;7.67;;;;;23.23;59.31;100910.75;146623;577;46020;-66
2023/05/30 08:01:06;;;;;;;;;6.33;6.00;;;;;23.32;59.35;100912.53;146619;575;47012;-66
2023/05/30 08:04:05;;;;;;;;;10.00;7.00;;;;;23.37;60.23;100910.81;146624;575;46020;-66
2023/05/30 08:07:08;;;;;;;;;9.33;8.00;;;;;23.38;59.00;100909.91;146619;589;47012;-66
2023/05/30 08:10:12;;;;;;;;;6.00;6.00;;;;;23.42;59.75;100906.38;146623;596;46020;-66
2023/05/30 08:13:16;;;;;;;;;9.75;7.50;;;;;23.51;60.87;100909.03;146619;579;46017;-66
2023/05/30 08:16:26;;;;;;;;;7.00;7.00;;;;;23.68;60.86;100907.31;146623;585;46020;-68
2023/05/30 08:19:41;;;;;;;;;8.00;6.33;;;;;22.81;56.21;100717.59;146620;565;46017;-77
2023/05/30 08:22:33;;;;;;;;;8.33;7.33;;;;;23.93;56.97;100910.84;146624;592;46010;-71
2023/05/30 08:25:37;;;;;;;;;8.33;8.33;;;;;23.73;57.09;100899.38;146620;596;46016;-70
2023/05/30 08:28:55;;;;;;;;;7.00;6.33;;;;;23.43;59.45;100892.28;146623;565;46021;-72
2023/05/30 08:32:05;;;;;;;;;8.00;6.00;;;;;23.40;59.76;100908.16;146617;572;46016;-71
2023/05/30 08:35:04;;;;;;;;;8.00;7.00;;;;;23.35;59.81;100909.91;146624;645;46021;-71
2023/05/30 08:38:06;;;;;;;;;7.00;7.00;;;;;23.31;58.86;100909.03;146617;572;47012;-71
2023/05/30 08:41:03;;;;;;;;;8.00;8.00;;;;;23.25;60.23;100909.88;146624;587;46010;-71
2023/05/30 08:44:05;;;;;;;;;5.00;5.00;;;;;23.16;59.59;100904.56;146619;625;46017;-70
2023/05/30 08:47:07;;;;;;;;;9.00;7.00;;;;;23.10;60.35;100911.59;146621;570;46029;-70
2023/05/30 08:50:04;;;;;;;;;6.67;6.33;;;;;23.02;60.95;100912.47;146620;581;46013;-70
2023/05/30 08:53:17;;;;;;;;;9.00;7.67;;;;;21.36;61.21;100649.28;146620;577;46020;-71
2023/05/30 08:56:24;;;;;;;;;7.00;6.00;;;;;22.64;61.70;100916.69;146618;583;46015;-70
2023/05/30 08:59:28;;;;;;;;;7.00;7.00;;;;;22.43;62.61;100907.78;146616;569;47021;-71
2023/05/30 09:02:43;;;;;;;;;5.33;5.33;;;;;22.33;63.71;100911.22;146619;569;46012;-71
2023/05/30 09:05:51;;;;;;;;;5.67;5.00;;;;;22.28;60.77;100908.56;146622;633;46020;-72
2023/05/30 09:08:48;;;;;;;;;5.67;5.33;;;;;22.32;60.69;100909.47;146619;569;47012;-72
2023/05/30 09:11:58;;;;;;;;;7.00;6.00;;;;;22.38;61.38;100912.16;146621;628;46021;-70
2023/05/30 09:14:58;;;;;;;;;5.67;4.33;;;;;22.45;61.41;100908.66;146618;579;46016;-71
2023/05/30 09:18:19;;;;;;;;;5.00;5.00;;;;;22.48;61.02;100902.50;146623;613;46020;-70
2023/05/30 09:21:28;;;;;;;;;5.00;5.00;;;;;22.62;60.27;100900.84;146618;654;46019;-70
2023/05/30 09:24:26;;;;;;;;;4.00;4.00;;;;;22.70;60.17;100895.56;146621;576;46020;-70
2023/05/30 09:28:05;;;;;;;;;11.67;6.00;;;;;21.73;60.55;100694.34;146621;594;46016;-71
2023/05/30 09:31:23;;;;;;;;;6.00;5.00;;;;;23.00;59.56;100900.12;146623;614;46020;-71
2023/05/30 09:34:37;;;;;;;;;5.00;4.67;;;;;23.19;58.03;100925.75;146621;620;46013;-71
2023/05/30 09:37:38;;;;;;;;;6.67;5.00;;;;;23.34;57.17;100889.62;146623;588;46010;-70
2023/05/30 09:40:40;;;;;;;;;4.00;4.00;;;;;23.51;58.23;100885.22;146621;621;46013;-70
2023/05/30 09:43:41;;;;;;;;;6.00;5.00;;;;;23.59;56.90;100885.25;146626;564;46010;-71
2023/05/30 09:46:49;;;;;;;;;5.00;5.00;;;;;23.61;58.81;100886.97;146619;676;46917;-67
2023/05/30 09:49:47;;;;;;;;;6.67;5.00;;;;;23.75;56.12;100892.31;146623;665;46021;-67
2023/05/30 09:52:56;;;;;;;;;5.00;5.00;;;;;23.91;55.56;100888.78;146619;646;46914;-66
2023/05/30 09:56:06;;;;;;;;;6.00;6.00;;;;;24.18;55.97;100882.56;146621;599;46021;-66
2023/05/30 09:59:10;;;;;;;;;5.33;3.67;;;;;24.43;54.58;100883.41;146613;571;47016;-66
2023/05/30 10:02:36;;;;;;;;;6.00;6.00;;;;;24.40;56.26;100835.69;146623;597;46010;-68
2023/05/30 10:05:46;;;;;;;;;11.00;7.00;;;;;24.78;54.49;100881.50;146620;569;46016;-67
2023/05/30 10:08:46;;;;;;;;;7.33;5.67;;;;;24.80;51.43;100882.41;146619;627;46020;-66
2023/05/30 10:11:43;;;;;;;;;6.00;5.00;;;;;24.83;52.26;100877.97;146618;569;46017;-67
2023/05/30 10:14:41;;;;;;;;;8.00;7.67;;;;;24.93;51.20;100876.12;146620;593;47014;-68
2023/05/30 10:17:38;;;;;;;;;8.33;6.33;;;;;25.06;52.29;100872.50;146621;669;47012;-67
2023/05/30 10:20:38;;;;;;;;;7.33;7.33;;;;;25.24;53.01;100868.91;146623;581;46010;-67
2023/05/30 10:23:44;;;;;;;;;6.67;6.00;;;;;25.36;50.37;100854.69;146618;628;46012;-67
2023/05/30 10:26:49;;;;;;;;;5.33;5.33;;;;;25.39;50.38;100864.37;146624;573;46020;-68
2023/05/30 10:30:13;;;;;;;;;8.00;6.33;;;;;25.23;50.32;100864.47;146615;593;46016;-67
2023/05/30 10:33:25;;;;;;;;;6.67;6.00;;;;;24.99;50.91;100873.44;146620;578;46021;-67
2023/05/30 10:36:17;;;;;;;;;4.00;4.00;;;;;24.80;51.43;100877.97;146622;586;46012;-68
2023/05/30 10:40:06;;;;;;;;;5.67;5.33;;;;;24.72;52.72;100866.50;146623;663;46020;-67
2023/05/30 10:43:33;;;;;;;;;6.33;5.67;;;;;24.73;52.05;100870.91;146620;573;46016;-68
2023/05/30 10:47:02;;;;;;;;;4.33;4.00;;;;;24.30;51.96;100780.06;146626;569;46012;-67
2023/05/30 10:50:17;;;;;;;;;6.67;6.00;;;;;24.73;53.55;100841.75;146618;583;46915;-68
2023/05/30 10:53:38;;;;;;;;;7.00;6.00;;;;;24.88;52.75;100841.66;146621;624;46020;-67
2023/05/30 10:56:55;;;;;;;;;7.67;6.67;;;;;24.96;53.17;100832.81;146618;595;46915;-67
2023/05/30 10:59:50;;;;;;;;;7.00;7.00;;;;;25.02;50.88;100819.50;146626;563;46010;-68
2023/05/30 11:02:57;;;;;;;;;5.67;5.67;;;;;25.15;50.16;100838.91;146619;639;46017;-68
2023/05/30 11:06:10;;;;;;;;;6.00;5.00;;;;;25.14;51.72;100822.09;146621;601;46020;-68
2023/05/30 11:09:29;;;;;;;;;8.00;7.00;;;;;25.26;52.49;100816.69;146617;566;46017;-69
2023/05/30 11:12:34;;;;;;;;;5.33;5.00;;;;;25.46;50.07;100821.84;146621;612;46021;-68
2023/05/30 11:15:47;;;;;;;;;5.33;5.00;;;;;25.64;51.79;100806.63;146619;592;46014;-68
2023/05/30 11:19:22;;;;;;;;;7.00;5.33;;;;;25.84;53.25;100806.47;146624;584;46020;-68
2023/05/30 11:22:28;;;;;;;;;6.33;5.00;;;;;25.98;53.38;100813.41;146619;629;46016;-67
2023/05/30 11:25:37;;;;;;;;;6.67;6.67;;;;;25.46;52.66;100720.09;146625;574;46011;-68
2023/05/30 11:29:10;;;;;;;;;;;;;;;;;;;;;
2023/05/30 11:32:15;;;;;;;;;5.00;5.00;;;;;26.25;51.34;100816.66;146623;582;46020;-67
2023/05/30 11:35:43;;;;;;;;;;;;;;;;;;;;;
2023/05/30 11:38:55;;;;;;;;;6.00;6.00;;;;;25.80;48.67;100810.91;146624;595;46010;-67
2023/05/30 11:41:54;;;;;;;;;6.67;6.67;;;;;25.43;50.00;100802.41;146619;631;47014;-67
2023/05/30 11:45:08;;;;;;;;;5.00;5.00;;;;;25.09;50.66;100778.75;146625;618;46020;-68
2023/05/30 11:48:20;;;;;;;;;6.67;6.33;;;;;25.00;51.41;100798.28;146619;564;46014;-66
2023/05/30 11:51:16;;;;;;;;;6.33;6.00;;;;;24.91;51.96;100786.84;146642;563;46010;-67
2023/05/30 11:54:22;;;;;;;;;7.67;6.33;;;;;24.89;52.20;100778.88;146640;579;46013;-67
2023/05/30 11:57:27;;;;;;;;;4.67;4.33;;;;;24.89;52.47;100782.44;146643;571;45038;-67
2023/05/30 12:00:44;;;;;;;;;7.00;7.00;;;;;24.91;53.27;100779.75;146639;576;45913;-67
2023/05/30 12:04:04;;;;;;;;;4.33;4.00;;;;;25.02;51.67;100777.06;146636;621;46010;-67
2023/05/30 12:07:13;;;;;;;;;6.33;5.00;;;;;25.06;49.97;100778.78;146636;572;45012;-67
2023/05/30 12:10:06;;;;;;;;;6.00;6.00;;;;;25.08;50.52;100779.66;146635;570;45021;-67
2023/05/30 12:13:07;;;;;;;;;7.33;5.00;;;;;25.20;51.37;100779.56;146635;625;45016;-67
2023/05/30 12:16:08;;;;;;;;;7.00;6.00;;;;;25.32;51.83;100779.47;146638;571;45018;-65
2023/05/30 12:19:17;;;;;;;;;4.00;4.00;;;;;25.49;52.93;100768.72;146635;571;45016;-66
2023/05/30 12:22:22;;;;;;;;;;;;;;;;;;;;;
2023/05/30 12:25:34;;;;;;;;;7.00;4.67;;;;;25.97;53.46;100760.28;146636;612;45034;-69
2023/05/30 12:28:40;;;;;;;;;6.33;4.67;;;;;26.15;50.44;100773.34;146638;569;45020;-66
2023/05/30 12:31:37;;;;;;;;;8.33;6.00;;;;;26.20;49.63;100766.22;146636;597;45017;-66
2023/05/30 12:34:51;;;;;;;;;6.33;4.67;;;;;26.13;50.89;100763.63;146636;570;45020;-68
2023/05/30 12:38:04;;;;;;;;;2.67;2.00;;;;;26.05;50.08;100762.87;146637;564;46012;-66
2023/05/30 12:41:17;;;;;;;;;3.00;3.00;;;;;25.96;51.49;100777.13;146635;577;46010;-67
2023/05/30 12:44:14;;;;;;;;;4.33;4.33;;;;;25.84;50.33;100772.81;146638;649;45915;-68
2023/05/30 12:47:16;;;;;;;;;5.67;5.67;;;;;25.85;50.99;100773.69;146632;582;45029;-67
2023/05/30 12:50:23;;;;;;;;;3.33;3.33;;;;;25.89;50.97;100759.47;146624;572;47012;-68
2023/05/30 12:53:22;;;;;;;;;4.67;4.67;;;;;25.94;49.12;100757.66;146624;564;46011;-67
2023/05/30 12:56:22;;;;;;;;;5.00;4.33;;;;;26.08;48.82;100755.72;146617;648;47012;-68
2023/05/30 12:59:21;;;;;;;;;4.33;4.00;;;;;26.15;52.02;100756.53;146623;576;47010;-67
2023/05/30 13:02:35;;;;;;;;;4.67;4.67;;;;;26.22;51.34;100761.75;146619;564;46016;-68
2023/05/30 13:05:28;;;;;;;;;6.00;4.33;;;;;26.25;51.58;100760.81;146622;630;46020;-67
2023/05/30 13:08:36;;;;;;;;;;;;;;;;;;;;;
2023/05/30 13:11:52;;;;;;;;;6.67;5.67;;;;;25.07;52.53;100544.41;146621;656;46020;-67
2023/05/30 13:14:58;;;;;;;;;6.00;5.33;;;;;26.22;51.20;100753.75;146615;586;48012;-66
2023/05/30 13:18:01;;;;;;;;;4.00;4.00;;;;;26.20;51.61;100744.03;146614;573;46020;-67
2023/05/30 13:21:13;;;;;;;;;5.00;4.33;;;;;26.16;51.61;100747.66;146616;586;47012;-69
2023/05/30 13:24:30;;;;;;;;;;;;;;;;;;;;;
2023/05/30 13:27:29;;;;;;;;;6.33;6.33;;;;;26.20;49.92;100746.72;146616;616;46014;-67
2023/05/30 13:30:41;;;;;;;;;7.33;6.33;;;;;26.17;50.50;100754.75;146623;662;46021;-66
2023/05/30 13:33:50;;;;;;;;;6.00;6.00;;;;;26.09;52.47;100749.50;146619;724;46012;-68
2023/05/30 13:36:55;;;;;;;;;7.67;7.00;;;;;26.03;53.04;100762.87;146623;570;46011;-65
2023/05/30 13:40:14;;;;;;;;;6.00;6.00;;;;;23.89;51.21;100403.28;146621;592;46016;-68
2023/05/30 13:43:12;;;;;;;;;7.00;6.00;;;;;25.84;51.67;100763.97;146626;584;46018;-67
2023/05/30 13:46:10;;;;;;;;;7.33;5.33;;;;;25.74;51.40;100757.84;146615;626;46017;-67
2023/05/30 13:49:14;;;;;;;;;7.67;6.00;;;;;25.56;52.42;100749.16;146619;584;46010;-68
2023/05/30 13:52:16;;;;;;;;;8.00;7.67;;;;;25.38;53.81;100753.78;146614;601;46016;-67
2023/05/30 13:55:24;;;;;;;;;4.00;4.00;;;;;25.20;52.71;100766.31;146623;687;46010;-67
2023/05/30 13:58:18;;;;;;;;;7.00;6.00;;;;;25.01;55.54;100765.53;146620;742;47012;-68
2023/05/30 14:01:13;;;;;;;;;6.00;5.67;;;;;24.88;55.45;100761.22;146623;684;46020;-68
2023/05/30 14:04:12;;;;;;;;;8.67;7.67;;;;;24.86;54.68;100776.28;146619;564;46016;-67
2023/05/30 14:07:21;;;;;;;;;8.00;6.00;;;;;23.73;55.67;100579.03;146623;589;46010;-67
2023/05/30 14:10:27;;;;;;;;;;;;;;;;;;;;;
2023/05/30 14:13:28;;;;;;;;;8.00;6.00;;;;;25.03;55.75;100776.16;146623;622;46020;-67
2023/05/30 14:16:29;;;;;;;;;6.67;6.67;;;;;25.07;55.35;100767.28;146618;609;46016;-68
2023/05/30 14:19:32;;;;;;;;;6.33;6.33;;;;;25.20;54.25;100781.34;146619;563;46020;-69
2023/05/30 14:22:51;;;;;;;;;8.00;8.00;;;;;25.08;55.57;100739.88;146620;593;46017;-67
2023/05/30 14:26:03;;;;;;;;;7.33;4.67;;;;;25.45;55.08;100780.28;146624;585;46010;-66
2023/05/30 14:29:07;;;;;;;;;9.00;7.00;;;;;25.53;54.19;100783.72;146619;666;46915;-68
2023/05/30 14:32:14;;;;;;;;;8.00;7.00;;;;;25.55;53.79;100789.91;146623;626;46014;-67
2023/05/30 14:35:11;;;;;;;;;7.00;5.67;;;;;25.46;53.54;100795.28;146616;637;46016;-67
2023/05/30 14:38:10;;;;;;;;;7.33;6.33;;;;;25.31;55.09;100798.94;146619;575;46021;-69
2023/05/30 14:41:17;;;;;;;;;6.33;6.33;;;;;25.15;55.19;100794.66;146619;620;46012;-68
2023/05/30 14:44:13;;;;;;;;;6.00;6.00;;;;;25.03;55.72;100792.94;146623;614;46021;-68